Time;durP1;ratioP1;P1;durP2;ratioP2;P2;SDS_P1;SDS_P2;PMS_P1;PMS_P2;Temp;Humidity;BMP_temperature;BMP_pressure;BME280_temperature;BME280_humidity;BME280_pressure;Samples;Min_cycle;Max_cycle;Signal;HPM_P1;HPM_P2
2022/08/19 00:00:14;;;;;;;;;18.00;16.75;;;27.40;97367.36;;;;119059;1189;25762;-68
2022/08/19 00:03:01;;;;;;;;;17.00;16.50;;;27.44;97368.95;;;;119018;1190;25834;-69
2022/08/19 00:05:31;;;;;;;;;15.33;13.67;;;27.40;97369.17;;;;119013;1190;25065;-68
2022/08/19 00:07:59;;;;;;;;;17.50;14.75;;;27.34;97374.60;;;;119142;1187;25386;-67
2022/08/19 00:10:27;;;;;;;;;17.75;17.25;;;27.29;97374.91;;;;119132;1188;25534;-68
2022/08/19 00:12:55;;;;;;;;;16.00;14.25;;;27.22;97372.95;;;;119018;1189;25000;-68
2022/08/19 00:15:23;;;;;;;;;9.50;9.50;;;27.15;97370.94;;;;119024;1188;25202;-69
2022/08/19 00:17:51;;;;;;;;;16.25;16.25;;;27.12;97371.99;;;;119116;1188;24878;-69
2022/08/19 00:20:20;;;;;;;;;22.50;18.25;;;27.08;97371.97;;;;119078;1187;24914;-69
2022/08/19 00:22:49;;;;;;;;;15.00;15.00;;;27.05;97375.80;;;;119110;1188;25697;-69
2022/08/19 00:25:18;;;;;;;;;17.75;15.50;;;27.00;97378.99;;;;119108;1187;25790;-67
2022/08/19 00:27:59;;;;;;;;;22.25;20.50;;;27.03;97387.06;;;;119109;1188;25063;-68
2022/08/19 00:30:27;;;;;;;;;19.50;13.00;;;27.02;97390.31;;;;119121;1188;25494;-67
2022/08/19 00:32:56;;;;;;;;;22.75;19.00;;;26.99;97391.80;;;;119129;1187;25395;-70
2022/08/19 00:35:27;;;;;;;;;16.00;16.00;;;26.98;97388.33;;;;119168;1188;25361;-68
2022/08/19 00:37:55;;;;;;;;;21.50;20.75;;;26.98;97381.20;;;;119136;1188;25632;-70
2022/08/19 00:40:23;;;;;;;;;17.00;12.00;;;26.94;97377.00;;;;119143;1187;25696;-68
2022/08/19 00:42:53;;;;;;;;;16.50;14.00;;;26.91;97378.09;;;;119021;1189;24879;-68
2022/08/19 00:45:26;;;;;;;;;12.75;9.50;;;26.83;97383.25;;;;119031;1189;24876;-67
2022/08/19 00:47:53;;;;;;;;;20.00;16.25;;;26.82;97391.72;;;;119140;1188;25501;-67
2022/08/19 00:50:21;;;;;;;;;20.25;17.50;;;26.80;97391.52;;;;119154;1187;24810;-67
2022/08/19 00:52:51;;;;;;;;;20.00;16.25;;;26.78;97388.11;;;;119074;1189;25433;-67
2022/08/19 00:55:23;;;;;;;;;21.00;17.50;;;26.75;97382.11;;;;119152;1186;25415;-68
2022/08/19 00:57:55;;;;;;;;;15.50;14.00;;;26.75;97380.30;;;;119161;1189;25765;-68
2022/08/19 01:00:25;;;;;;;;;24.00;19.50;;;26.75;97379.11;;;;119191;1188;25718;-67
2022/08/19 01:02:53;;;;;;;;;14.50;14.25;;;26.70;97374.94;;;;119227;1188;25952;-68
2022/08/19 01:05:24;;;;;;;;;20.00;17.50;;;26.68;97380.05;;;;119225;1188;26424;-69
2022/08/19 01:07:53;;;;;;;;;13.25;12.00;;;26.67;97392.06;;;;119184;1188;25026;-69
2022/08/19 01:10:24;;;;;;;;;19.75;16.00;;;26.64;97402.90;;;;119235;1187;25304;-71
2022/08/19 01:12:55;;;;;;;;;21.00;18.75;;;26.65;97398.46;;;;119214;1188;25868;-69
2022/08/19 01:15:27;;;;;;;;;22.50;21.00;;;26.63;97395.22;;;;119207;1187;25201;-72
2022/08/19 01:17:57;;;;;;;;;19.00;16.25;;;26.61;97394.50;;;;119161;1188;25178;-70
2022/08/19 01:20:25;;;;;;;;;16.50;16.50;;;26.61;97395.67;;;;119030;1189;24736;-68
2022/08/19 01:22:56;;;;;;;;;17.00;16.00;;;26.56;97392.21;;;;119134;1187;25038;-69
2022/08/19 01:25:31;;;;;;;;;16.50;15.75;;;26.52;97396.55;;;;119038;1189;25354;-72
2022/08/19 01:28:00;;;;;;;;;19.75;18.75;;;26.69;97401.58;;;;119201;1188;24935;-72
2022/08/19 01:30:38;;;;;;;;;17.25;16.25;;;26.83;97399.21;;;;119025;1187;25264;-71
2022/08/19 01:33:11;;;;;;;;;19.00;17.75;;;26.98;97399.14;;;;119150;1188;24920;-70
2022/08/19 01:35:42;;;;;;;;;22.25;18.00;;;27.09;97402.48;;;;119186;1188;25264;-71
2022/08/19 01:38:23;;;;;;;;;15.75;14.00;;;27.20;97403.10;;;;119167;1187;25374;-70
2022/08/19 01:40:52;;;;;;;;;15.75;15.75;;;27.36;97396.11;;;;119154;1188;25182;-70
2022/08/19 01:43:20;;;;;;;;;19.25;17.50;;;27.49;97397.99;;;;119069;1189;25480;-73
2022/08/19 01:45:50;;;;;;;;;16.75;15.50;;;27.58;97397.71;;;;119015;1189;25080;-71
2022/08/19 01:48:19;;;;;;;;;16.25;16.25;;;27.69;97396.45;;;;119137;1188;25694;-71
2022/08/19 01:50:48;;;;;;;;;16.75;15.75;;;27.77;97388.55;;;;119036;1189;25642;-71
2022/08/19 01:53:16;;;;;;;;;17.75;14.50;;;27.86;97388.73;;;;119114;1189;24829;-70
2022/08/19 01:55:45;;;;;;;;;16.75;15.75;;;27.94;97396.80;;;;119111;1188;25624;-70
2022/08/19 01:58:18;;;;;;;;;16.75;14.75;;;28.02;97402.36;;;;119090;1188;24987;-72
2022/08/19 02:00:47;;;;;;;;;13.25;13.25;;;28.10;97397.07;;;;119118;1188;25709;-72
2022/08/19 02:03:16;;;;;;;;;15.25;15.25;;;28.19;97399.52;;;;119124;1187;25536;-74
2022/08/19 02:05:45;;;;;;;;;14.00;13.50;;;28.26;97405.70;;;;119033;1188;24804;-74
2022/08/19 02:08:16;;;;;;;;;11.00;11.00;;;28.32;97403.71;;;;119117;1188;25062;-70
2022/08/19 02:10:49;;;;;;;;;16.25;15.25;;;28.40;97401.48;;;;119152;1188;24860;-70
2022/08/19 02:13:18;;;;;;;;;14.00;13.50;;;28.47;97404.26;;;;119045;1189;25024;-72
2022/08/19 02:15:53;;;;;;;;;19.25;17.25;;;28.55;97415.02;;;;119123;1187;25382;-70
2022/08/19 02:18:21;;;;;;;;;10.00;10.00;;;28.60;97421.05;;;;119159;1188;25685;-70
2022/08/19 02:20:55;;;;;;;;;17.50;14.75;;;28.65;97413.84;;;;119152;1187;26624;-70
2022/08/19 02:23:23;;;;;;;;;12.75;12.75;;;28.70;97404.77;;;;119035;1188;25276;-69
2022/08/19 02:25:52;;;;;;;;;19.00;15.00;;;28.74;97400.61;;;;119200;1188;25773;-67
2022/08/19 02:28:20;;;;;;;;;16.50;15.25;;;28.84;97405.20;;;;119439;1188;24929;-68
2022/08/19 02:30:48;;;;;;;;;15.50;14.50;;;29.27;97408.18;;;;119087;1187;24993;-70
2022/08/19 02:33:16;;;;;;;;;18.50;16.75;;;29.20;97404.94;;;;119032;1190;25532;-70
2022/08/19 02:35:46;;;;;;;;;19.00;17.00;;;29.11;97404.27;;;;119009;1189;25367;-70
2022/08/19 02:38:26;;;;;;;;;12.75;9.25;;;29.08;97414.02;;;;119033;1189;25396;-70
2022/08/19 02:40:59;;;;;;;;;11.00;10.75;;;29.10;97410.98;;;;119003;1189;25090;-70
2022/08/19 02:43:29;;;;;;;;;9.00;8.75;;;29.09;97406.55;;;;119014;1190;25351;-71
2022/08/19 02:46:14;;;;;;;;;16.00;14.00;;;29.11;97411.70;;;;119024;1190;25139;-68
2022/08/19 02:48:42;;;;;;;;;17.50;16.25;;;29.27;97416.27;;;;119284;1188;25499;-71
2022/08/19 02:51:24;;;;;;;;;17.00;16.50;;;29.65;97415.95;;;;119019;1189;25580;-70
2022/08/19 02:53:53;;;;;;;;;15.75;12.25;;;29.56;97418.70;;;;119004;1190;24875;-70
2022/08/19 02:56:21;;;;;;;;;17.75;17.50;;;29.44;97420.56;;;;119029;1190;25278;-70
2022/08/19 02:58:49;;;;;;;;;15.25;15.25;;;29.35;97421.42;;;;119015;1189;25082;-69
2022/08/19 03:01:22;;;;;;;;;14.50;11.75;;;29.30;97420.42;;;;118995;1190;24860;-69
2022/08/19 03:03:50;;;;;;;;;13.50;12.25;;;29.29;97421.17;;;;119010;1190;26163;-69
2022/08/19 03:06:19;;;;;;;;;18.50;18.50;;;29.26;97420.71;;;;119033;1190;25124;-69
2022/08/19 03:08:49;;;;;;;;;17.00;12.00;;;29.26;97420.48;;;;119041;1190;24954;-69
2022/08/19 03:11:20;;;;;;;;;17.50;15.75;;;29.27;97422.91;;;;119040;1189;25554;-69
2022/08/19 03:13:50;;;;;;;;;17.50;15.00;;;29.26;97421.45;;;;119015;1190;25065;-70
2022/08/19 03:16:19;;;;;;;;;14.75;12.50;;;29.27;97422.30;;;;119045;1190;24742;-71
2022/08/19 03:18:48;;;;;;;;;16.00;15.50;;;29.27;97422.52;;;;119027;1189;25364;-70
2022/08/19 03:21:18;;;;;;;;;14.25;10.50;;;29.28;97427.58;;;;119025;1188;26040;-70
2022/08/19 03:23:46;;;;;;;;;15.75;10.00;;;29.29;97434.30;;;;119021;1189;25239;-70
2022/08/19 03:26:14;;;;;;;;;15.00;14.00;;;29.29;97433.48;;;;119023;1190;25858;-70
2022/08/19 03:28:47;;;;;;;;;15.75;14.75;;;29.29;97429.52;;;;119050;1190;24791;-70
2022/08/19 03:31:25;;;;;;;;;14.25;14.25;;;29.33;97431.48;;;;119039;1189;25286;-69
2022/08/19 03:34:20;;;;;;;;;18.00;16.25;;;29.41;97431.70;;;;119012;1190;24798;-70
2022/08/19 03:36:48;;;;;;;;;14.50;13.00;;;29.43;97430.43;;;;119058;1190;25310;-67
2022/08/19 03:39:16;;;;;;;;;13.50;13.50;;;29.41;97430.10;;;;119042;1189;25837;-68
2022/08/19 03:41:46;;;;;;;;;14.00;13.50;;;29.38;97433.55;;;;119033;1189;25592;-69
2022/08/19 03:44:19;;;;;;;;;14.75;12.75;;;29.37;97433.46;;;;119045;1189;24998;-70
2022/08/19 03:46:50;;;;;;;;;16.00;14.75;;;29.38;97431.54;;;;119034;1190;25432;-70
2022/08/19 03:49:19;;;;;;;;;12.75;12.75;;;29.39;97425.25;;;;119029;1190;25512;-70
2022/08/19 03:51:49;;;;;;;;;14.50;14.50;;;29.39;97427.55;;;;119103;1189;26005;-69
2022/08/19 03:54:22;;;;;;;;;16.75;15.50;;;29.40;97439.11;;;;119127;1187;25077;-69
2022/08/19 03:56:53;;;;;;;;;10.25;10.25;;;29.40;97443.52;;;;119117;1189;25703;-69
2022/08/19 03:59:29;;;;;;;;;14.67;12.33;;;29.41;97439.45;;;;119097;1189;24853;-70
2022/08/19 04:01:59;;;;;;;;;13.75;12.25;;;29.43;97433.23;;;;119137;1189;24889;-70
2022/08/19 04:04:28;;;;;;;;;15.50;15.50;;;29.47;97440.91;;;;119129;1187;26298;-70
2022/08/19 04:06:58;;;;;;;;;16.50;14.75;;;29.46;97450.90;;;;119133;1189;24860;-70
2022/08/19 04:09:26;;;;;;;;;13.00;11.50;;;29.45;97453.71;;;;119123;1188;26294;-70
2022/08/19 04:11:56;;;;;;;;;10.00;8.33;;;29.47;97451.23;;;;119003;1190;24985;-70
2022/08/19 04:14:29;;;;;;;;;12.00;12.00;;;29.47;97453.44;;;;119141;1188;26263;-69
2022/08/19 04:17:01;;;;;;;;;16.25;12.75;;;29.48;97460.80;;;;119135;1187;25540;-70
2022/08/19 04:19:30;;;;;;;;;17.50;15.00;;;29.53;97459.89;;;;119155;1186;25258;-68
2022/08/19 04:21:58;;;;;;;;;16.00;13.50;;;29.67;97459.65;;;;119165;1188;25636;-68
2022/08/19 04:24:26;;;;;;;;;13.25;12.00;;;29.81;97463.92;;;;119229;1188;24937;-68
2022/08/19 04:26:54;;;;;;;;;15.00;14.50;;;29.91;97470.77;;;;119081;1189;25253;-68
2022/08/19 04:29:24;;;;;;;;;15.50;12.25;;;29.96;97475.27;;;;119028;1189;25838;-69
2022/08/19 04:31:54;;;;;;;;;13.50;13.50;;;30.02;97472.95;;;;119143;1188;25846;-70
2022/08/19 04:34:24;;;;;;;;;17.25;13.75;;;29.94;97469.89;;;;119122;1188;25366;-70
2022/08/19 04:36:54;;;;;;;;;16.50;14.75;;;29.82;97466.84;;;;119117;1187;25585;-70
2022/08/19 04:42:38;;;;;;;;;15.75;13.50;;;29.74;97463.52;;;;119132;1188;25525;-70
2022/08/19 04:45:03;;;;;;;;;12.25;10.25;;;29.78;97473.66;;;;119170;1189;24993;-70
2022/08/19 04:47:44;;;;;;;;;13.00;12.00;;;29.72;97470.42;;;;119163;1188;25795;-69
2022/08/19 04:50:26;;;;;;;;;17.25;12.25;;;29.76;97470.08;;;;119063;1189;25437;-69
2022/08/19 04:52:55;;;;;;;;;18.00;16.50;;;29.74;97464.14;;;;119169;1188;25141;-68
2022/08/19 04:55:25;;;;;;;;;15.50;15.00;;;29.71;97464.90;;;;119162;1188;26146;-68
2022/08/19 04:57:54;;;;;;;;;15.00;15.00;;;29.69;97460.77;;;;119140;1187;25274;-68
2022/08/19 05:00:22;;;;;;;;;17.00;15.25;;;29.67;97456.46;;;;119007;1189;26054;-69
2022/08/19 05:02:50;;;;;;;;;15.67;12.33;;;29.66;97451.66;;;;119146;1188;26408;-69
2022/08/19 05:05:19;;;;;;;;;19.50;14.25;;;29.65;97453.63;;;;119168;1187;25866;-69
2022/08/19 05:07:47;;;;;;;;;16.75;15.00;;;29.64;97450.74;;;;119152;1187;25344;-68
2022/08/19 05:10:15;;;;;;;;;19.00;17.00;;;29.65;97450.09;;;;119159;1187;25722;-69
2022/08/19 05:12:43;;;;;;;;;18.75;13.25;;;29.67;97444.91;;;;119127;1187;24825;-69
2022/08/19 05:15:11;;;;;;;;;12.00;11.25;;;29.67;97444.02;;;;119136;1188;25073;-70
2022/08/19 05:22:31;;;;;;;;;11.67;11.00;;;29.70;97445.84;;;;119009;1189;25663;-70
2022/08/19 05:23:15;;;;;;;;;15.50;12.75;;;29.82;97446.73;;;;119152;1188;24726;-70
2022/08/19 05:25:51;;;;;;;;;14.75;14.00;;;29.82;97446.39;;;;119123;1189;25621;-69
2022/08/19 05:28:20;;;;;;;;;11.25;11.25;;;29.83;97452.20;;;;119122;1188;25505;-70
2022/08/19 05:30:50;;;;;;;;;15.50;13.00;;;29.82;97452.80;;;;119114;1188;25173;-73
2022/08/19 05:33:18;;;;;;;;;13.00;13.00;;;29.80;97450.94;;;;119116;1188;25539;-69
2022/08/19 05:35:48;;;;;;;;;13.75;12.50;;;29.83;97454.83;;;;119117;1188;25603;-68
2022/08/19 05:38:17;;;;;;;;;15.00;13.25;;;29.84;97461.19;;;;119131;1188;24991;-71
2022/08/19 05:40:46;;;;;;;;;17.25;14.50;;;29.85;97456.58;;;;119148;1188;24706;-68
2022/08/19 05:43:18;;;;;;;;;16.25;16.25;;;29.86;97450.98;;;;119114;1187;25179;-72
2022/08/19 05:45:45;;;;;;;;;21.75;21.75;;;29.86;97453.14;;;;119120;1187;26202;-70
2022/08/19 05:48:14;;;;;;;;;27.50;25.75;;;29.81;97452.71;;;;119151;1188;24956;-68
2022/08/19 05:50:42;;;;;;;;;24.00;22.00;;;29.70;97447.20;;;;119080;1189;25258;-76
2022/08/19 05:53:10;;;;;;;;;25.50;22.75;;;29.58;97444.18;;;;119271;1187;25471;-67
2022/08/19 05:55:40;;;;;;;;;31.50;26.75;;;29.62;97448.25;;;;119128;1189;24860;-67
2022/08/19 05:58:08;;;;;;;;;30.25;26.50;;;29.71;97449.44;;;;118975;1189;25546;-68
2022/08/19 06:00:36;;;;;;;;;28.25;26.50;;;29.74;97451.83;;;;119115;1187;24893;-68
2022/08/19 06:03:04;;;;;;;;;21.67;18.33;;;29.75;97456.75;;;;118998;1189;24885;-68
2022/08/19 06:05:41;;;;;;;;;23.25;21.50;;;29.79;97461.34;;;;119128;1188;24934;-68
2022/08/19 06:08:19;;;;;;;;;25.75;19.75;;;29.82;97462.31;;;;119120;1187;25223;-68
2022/08/19 06:11:19;;;;;;;;;23.67;23.33;;;29.84;97459.45;;;;118994;1189;25432;-65
2022/08/19 06:13:50;;;;;;;;;22.50;21.25;;;29.91;97456.64;;;;119067;1188;25205;-68
2022/08/19 06:16:26;;;;;;;;;24.00;23.33;;;29.94;97454.16;;;;119083;1188;24801;-66
2022/08/19 06:18:56;;;;;;;;;23.00;23.00;;;29.96;97452.48;;;;119089;1189;25737;-66
2022/08/19 06:21:27;;;;;;;;;29.25;25.75;;;29.94;97449.93;;;;119082;1188;26239;-67
2022/08/19 06:23:56;;;;;;;;;30.67;26.33;;;29.97;97444.80;;;;118996;1187;25295;-67
2022/08/19 06:26:24;;;;;;;;;28.75;22.50;;;29.98;97441.96;;;;119008;1188;25331;-69
2022/08/19 06:28:52;;;;;;;;;29.25;23.75;;;29.95;97439.09;;;;119377;1188;25731;-64
2022/08/19 06:31:25;;;;;;;;;29.75;27.25;;;30.25;97434.33;;;;119562;1189;25607;-66
2022/08/19 06:33:53;;;;;;;;;27.33;24.67;;;30.79;97435.88;;;;119072;1187;25157;-71
2022/08/19 06:36:29;;;;;;;;;32.00;26.00;;;30.66;97436.66;;;;119102;1188;25881;-69
2022/08/19 06:38:58;;;;;;;;;28.50;24.25;;;30.54;97437.90;;;;118974;1189;25716;-72
2022/08/19 06:41:27;;;;;;;;;29.50;27.00;;;30.47;97440.16;;;;118933;1190;25589;-70
2022/08/19 06:43:55;;;;;;;;;28.75;24.50;;;30.36;97436.85;;;;119087;1188;25069;-67
2022/08/19 06:46:26;;;;;;;;;30.75;24.00;;;30.35;97441.04;;;;118997;1189;25506;-67
2022/08/19 06:48:56;;;;;;;;;27.25;25.25;;;30.35;97441.46;;;;119068;1188;24877;-66
2022/08/19 06:51:25;;;;;;;;;31.50;28.75;;;30.37;97444.16;;;;118990;1188;26177;-67
2022/08/19 06:53:58;;;;;;;;;26.25;24.50;;;30.34;97444.98;;;;119002;1188;24886;-68
2022/08/19 06:56:31;;;;;;;;;36.75;25.25;;;30.34;97445.35;;;;118984;1189;26184;-67
2022/08/19 06:59:02;;;;;;;;;32.00;29.50;;;30.33;97452.20;;;;119102;1188;24889;-67
2022/08/19 07:01:30;;;;;;;;;36.00;32.33;;;30.32;97455.61;;;;119114;1189;25125;-68
2022/08/19 07:03:57;;;;;;;;;32.75;30.50;;;30.31;97454.23;;;;118972;1189;25893;-69
2022/08/19 07:06:25;;;;;;;;;24.50;22.00;;;30.34;97452.59;;;;119125;1186;25140;-68
2022/08/19 07:09:13;;;;;;;;;36.75;26.50;;;30.38;97447.30;;;;119115;1187;25413;-66
2022/08/19 07:11:49;;;;;;;;;48.25;34.25;;;30.36;97451.73;;;;119140;1187;26378;-66
2022/08/19 07:14:20;;;;;;;;;45.00;33.75;;;30.32;97448.83;;;;119082;1188;25173;-66
2022/08/19 07:16:51;;;;;;;;;45.75;33.75;;;30.31;97447.57;;;;118967;1188;25396;-66
2022/08/19 07:19:19;;;;;;;;;40.00;32.25;;;30.35;97452.95;;;;118990;1188;24743;-67
2022/08/19 07:21:48;;;;;;;;;45.25;31.50;;;30.36;97453.23;;;;119139;1189;25226;-67
2022/08/19 07:24:17;;;;;;;;;48.50;34.75;;;30.32;97454.63;;;;119109;1188;24972;-64
2022/08/19 07:26:45;;;;;;;;;51.00;34.33;;;30.31;97452.40;;;;118975;1190;25023;-65
2022/08/19 07:29:22;;;;;;;;;51.75;37.50;;;30.31;97452.58;;;;119095;1188;25005;-68
2022/08/19 07:31:56;;;;;;;;;53.50;38.00;;;30.36;97456.77;;;;118960;1188;25041;-77
2022/08/19 07:34:29;;;;;;;;;57.75;41.25;;;30.37;97457.63;;;;118926;1189;25338;-70
2022/08/19 07:36:57;;;;;;;;;60.75;40.75;;;30.39;97456.16;;;;118987;1190;26389;-68
2022/08/19 07:39:29;;;;;;;;;48.00;36.00;;;30.38;97456.88;;;;118976;1190;24947;-69
2022/08/19 07:42:00;;;;;;;;;49.75;35.50;;;30.36;97458.35;;;;118976;1190;24783;-70
2022/08/19 07:44:28;;;;;;;;;50.50;34.25;;;30.33;97461.23;;;;118979;1190;25816;-71
2022/08/19 07:46:57;;;;;;;;;43.33;35.00;;;30.31;97467.14;;;;118977;1189;25920;-68
2022/08/19 07:49:26;;;;;;;;;43.25;33.75;;;30.30;97466.96;;;;119001;1189;25050;-68
2022/08/19 07:52:01;;;;;;;;;48.50;32.75;;;30.28;97465.13;;;;118991;1190;26211;-67
2022/08/19 07:54:31;;;;;;;;;45.25;34.00;;;30.29;97462.94;;;;118996;1188;25724;-69
2022/08/19 07:56:59;;;;;;;;;39.25;30.75;;;30.31;97451.45;;;;119014;1189;24974;-70
2022/08/19 07:59:28;;;;;;;;;35.67;30.33;;;30.30;97448.65;;;;118984;1190;25294;-70
2022/08/19 08:01:59;;;;;;;;;48.25;35.25;;;30.32;97442.64;;;;119007;1189;25272;-68
2022/08/19 08:10:03;;;;;;;;;36.25;30.50;;;30.37;97433.64;;;;118978;1189;25359;-65
2022/08/19 08:12:40;;;;;;;;;45.00;36.00;;;30.36;97432.08;;;;118973;1189;26182;-65
2022/08/19 08:15:16;;;;;;;;;66.33;46.00;;;30.41;97434.55;;;;118974;1189;25680;-64
2022/08/19 08:17:44;;;;;;;;;57.50;39.25;;;30.40;97427.52;;;;118985;1189;25211;-65
2022/08/19 08:20:19;;;;;;;;;60.50;37.75;;;30.40;97414.46;;;;118950;1188;24975;-65
2022/08/19 08:25:35;;;;;;;;;57.00;40.67;;;30.40;97424.02;;;;118975;1189;25780;-65
2022/08/19 08:28:04;;;;;;;;;64.67;42.67;;;30.37;97421.77;;;;119020;1190;25021;-64
2022/08/19 08:30:34;;;;;;;;;44.25;38.25;;;30.36;97424.94;;;;118975;1190;26009;-64
2022/08/19 08:33:03;;;;;;;;;60.00;42.33;;;30.35;97422.71;;;;118957;1187;25529;-65
2022/08/19 08:35:31;;;;;;;;;59.67;40.67;;;30.34;97423.16;;;;119032;1189;25479;-65
2022/08/19 08:37:59;;;;;;;;;58.33;40.33;;;30.35;97418.86;;;;118970;1189;25575;-64
2022/08/19 08:40:34;;;;;;;;;55.67;40.33;;;30.32;97414.70;;;;118981;1189;26322;-64
2022/08/19 08:43:33;;;;;;;;;62.75;39.25;;;30.36;97425.63;;;;118952;1190;25266;-64
2022/08/19 08:46:09;;;;;;;;;54.25;36.00;;;30.42;97423.01;;;;119010;1188;25839;-62
2022/08/19 08:48:46;;;;;;;;;42.75;33.25;;;30.42;97430.56;;;;119031;1188;25056;-63
2022/08/19 08:51:32;;;;;;;;;32.67;28.00;;;30.42;97428.38;;;;119036;1189;24986;-65
2022/08/19 08:54:06;;;;;;;;;37.75;29.00;;;30.41;97417.98;;;;119056;1188;24996;-62
2022/08/19 08:56:42;;;;;;;;;38.00;30.00;;;30.40;97412.64;;;;118980;1189;25655;-63
2022/08/19 08:59:24;;;;;;;;;25.50;23.25;;;30.37;97408.92;;;;119018;1189;25990;-64
2022/08/19 09:01:52;;;;;;;;;37.25;28.25;;;30.38;97407.54;;;;119028;1188;25162;-63
2022/08/19 09:04:22;;;;;;;;;29.00;27.67;;;30.36;97403.31;;;;119015;1189;25338;-64
2022/08/19 09:07:06;;;;;;;;;27.00;23.00;;;30.34;97394.44;;;;119000;1189;25560;-64
2022/08/19 09:10:26;;;;;;;;;25.00;22.25;;;30.39;97395.06;;;;119059;1189;25672;-63
2022/08/19 09:13:03;;;;;;;;;23.00;17.67;;;30.48;97392.23;;;;118960;1188;25571;-65
2022/08/19 09:15:40;;;;;;;;;26.50;22.75;;;30.50;97389.83;;;;119022;1189;25482;-64
2022/08/19 09:18:08;;;;;;;;;26.50;18.50;;;30.46;97391.17;;;;119039;1188;25438;-64
2022/08/19 09:20:49;;;;;;;;;23.75;22.75;;;30.44;97384.02;;;;119044;1188;24820;-69
2022/08/19 09:23:17;;;;;;;;;23.33;19.67;;;30.42;97381.36;;;;118980;1190;25679;-70
2022/08/19 09:25:53;;;;;;;;;27.75;24.00;;;30.42;97379.58;;;;119143;1187;25716;-73
2022/08/19 09:28:21;;;;;;;;;24.67;20.67;;;30.42;97385.73;;;;119009;1190;25032;-69
2022/08/19 09:30:54;;;;;;;;;22.75;16.25;;;30.42;97391.84;;;;119128;1188;24692;-71
2022/08/19 09:33:22;;;;;;;;;25.25;19.50;;;30.46;97383.78;;;;119110;1187;25724;-69
2022/08/19 09:35:50;;;;;;;;;24.50;19.25;;;30.46;97383.30;;;;119084;1187;24731;-71
2022/08/19 09:38:21;;;;;;;;;28.75;21.25;;;30.46;97380.14;;;;119136;1188;25700;-72
2022/08/19 09:40:49;;;;;;;;;23.33;19.67;;;30.45;97381.92;;;;119126;1188;25185;-71
2022/08/19 09:43:17;;;;;;;;;18.75;17.50;;;30.46;97381.28;;;;119110;1188;25526;-68
2022/08/19 09:46:01;;;;;;;;;20.75;18.00;;;30.50;97380.20;;;;119104;1188;26074;-66
2022/08/19 09:48:29;;;;;;;;;22.50;20.75;;;30.52;97382.73;;;;119129;1188;25223;-66
2022/08/19 09:51:11;;;;;;;;;21.50;17.75;;;30.49;97379.13;;;;118989;1189;25158;-67
2022/08/19 09:53:39;;;;;;;;;24.50;23.75;;;30.50;97382.11;;;;119117;1188;25333;-68
2022/08/19 09:56:06;;;;;;;;;21.50;20.50;;;30.49;97381.06;;;;119098;1188;25105;-65
2022/08/19 09:58:36;;;;;;;;;25.75;22.25;;;30.50;97382.16;;;;119011;1189;25521;-67
2022/08/19 10:01:05;;;;;;;;;23.25;20.75;;;30.53;97378.13;;;;119153;1188;24897;-68
2022/08/19 10:03:35;;;;;;;;;26.50;21.75;;;30.53;97382.10;;;;118914;1189;25149;-67
2022/08/19 10:06:04;;;;;;;;;19.00;19.00;;;30.54;97380.18;;;;119107;1188;25075;-65
2022/08/19 10:08:42;;;;;;;;;20.25;20.25;;;30.56;97375.08;;;;118994;1188;25412;-66
2022/08/19 10:11:20;;;;;;;;;21.75;18.75;;;30.59;97371.23;;;;118982;1188;26140;-65
2022/08/19 10:13:55;;;;;;;;;25.00;18.75;;;30.61;97363.73;;;;118965;1189;25368;-67
2022/08/19 10:16:25;;;;;;;;;20.75;18.00;;;30.61;97363.45;;;;118983;1189;25773;-68
2022/08/19 10:18:57;;;;;;;;;21.33;18.33;;;30.62;97357.45;;;;119092;1187;25522;-73
2022/08/19 10:21:29;;;;;;;;;17.75;16.50;;;30.65;97355.14;;;;118976;1188;25227;-70
2022/08/19 10:24:01;;;;;;;;;15.50;15.50;;;30.65;97358.82;;;;118987;1189;25793;-73
2022/08/19 10:26:32;;;;;;;;;20.50;18.75;;;30.67;97349.61;;;;119093;1188;24852;-70
2022/08/19 10:29:00;;;;;;;;;21.25;19.25;;;30.71;97347.39;;;;118983;1189;25793;-72
2022/08/19 10:31:31;;;;;;;;;25.25;23.00;;;30.71;97350.50;;;;119079;1187;25123;-69
2022/08/19 10:34:19;;;;;;;;;23.33;21.67;;;30.81;97348.34;;;;119059;1188;25643;-69
2022/08/19 10:36:56;;;;;;;;;21.25;18.50;;;30.84;97351.80;;;;118963;1190;25397;-65
2022/08/19 10:39:29;;;;;;;;;18.75;18.50;;;30.84;97347.42;;;;119043;1187;25514;-66
2022/08/19 10:41:59;;;;;;;;;19.50;19.50;;;30.86;97344.84;;;;119060;1189;25153;-65
2022/08/19 10:44:28;;;;;;;;;20.75;18.50;;;30.86;97344.71;;;;119027;1189;25429;-65
2022/08/19 10:46:59;;;;;;;;;15.25;12.25;;;30.89;97344.31;;;;119040;1188;25474;-65
2022/08/19 10:49:28;;;;;;;;;19.00;16.25;;;30.88;97342.42;;;;119062;1188;26161;-69
2022/08/19 10:57:43;;;;;;;;;19.75;17.75;;;30.97;97329.02;;;;118995;1189;25163;-71
2022/08/19 11:00:33;;;;;;;;;18.25;18.00;;;30.97;97334.48;;;;118981;1189;26179;-70
2022/08/19 11:03:01;;;;;;;;;17.00;13.50;;;31.00;97333.95;;;;118924;1189;25199;-72
2022/08/19 11:05:33;;;;;;;;;19.75;17.75;;;30.98;97331.77;;;;118985;1188;25098;-71
2022/08/19 11:08:11;;;;;;;;;21.75;18.50;;;30.97;97329.96;;;;118923;1188;25465;-70
2022/08/19 11:10:57;;;;;;;;;18.00;18.00;;;31.00;97326.99;;;;118990;1189;25709;-71
2022/08/19 11:13:25;;;;;;;;;22.00;17.67;;;31.02;97326.26;;;;119003;1188;25667;-66
2022/08/19 11:16:04;;;;;;;;;18.50;16.00;;;30.98;97324.91;;;;119064;1188;25390;-72
2022/08/19 11:18:40;;;;;;;;;15.75;15.75;;;31.05;97324.55;;;;119015;1189;25793;-69
2022/08/19 11:21:13;;;;;;;;;17.50;17.50;;;31.08;97329.64;;;;119065;1187;25841;-71
2022/08/19 11:23:46;;;;;;;;;18.00;14.00;;;31.11;97329.63;;;;119000;1189;25502;-72
2022/08/19 11:26:17;;;;;;;;;18.33;16.67;;;31.12;97330.05;;;;118903;1190;25645;-72
2022/08/19 11:28:45;;;;;;;;;18.50;15.50;;;31.14;97326.83;;;;119078;1188;24998;-73
2022/08/19 11:31:17;;;;;;;;;16.25;15.75;;;31.14;97326.34;;;;118950;1189;24953;-71
2022/08/19 11:33:46;;;;;;;;;20.25;16.50;;;31.17;97327.84;;;;118994;1189;25394;-68
2022/08/19 11:36:16;;;;;;;;;14.25;13.50;;;31.22;97326.43;;;;119094;1187;25598;-67
2022/08/19 11:38:54;;;;;;;;;20.50;15.50;;;31.25;97325.39;;;;118972;1190;25697;-64
2022/08/19 11:41:24;;;;;;;;;20.25;16.75;;;31.30;97323.83;;;;119116;1187;25143;-68
2022/08/19 11:43:55;;;;;;;;;15.00;14.00;;;31.32;97322.15;;;;118980;1189;25503;-68
2022/08/19 11:46:25;;;;;;;;;16.00;16.00;;;31.30;97317.30;;;;118962;1189;25469;-68
2022/08/19 11:48:54;;;;;;;;;16.50;16.50;;;31.31;97319.79;;;;119113;1188;25312;-70
2022/08/19 11:51:26;;;;;;;;;19.50;19.50;;;31.33;97317.56;;;;119007;1188;25528;-67
2022/08/19 11:53:56;;;;;;;;;18.75;15.25;;;31.43;97314.92;;;;118953;1189;25598;-67
2022/08/19 11:56:25;;;;;;;;;19.00;16.50;;;31.43;97310.86;;;;118968;1190;25967;-67
2022/08/19 11:58:54;;;;;;;;;16.75;13.25;;;31.43;97311.35;;;;118991;1190;26113;-61
2022/08/19 12:01:24;;;;;;;;;13.75;12.50;;;31.50;97308.98;;;;119063;1188;25425;-61
2022/08/19 12:03:56;;;;;;;;;17.00;16.00;;;31.45;97310.86;;;;118899;1189;25424;-62
2022/08/19 12:06:28;;;;;;;;;12.75;12.75;;;31.46;97310.37;;;;118936;1188;25685;-67
2022/08/19 12:08:59;;;;;;;;;17.75;16.25;;;31.46;97308.84;;;;119095;1187;25084;-64
2022/08/19 12:11:31;;;;;;;;;13.75;13.75;;;31.51;97310.67;;;;118916;1189;25556;-66
2022/08/19 12:14:01;;;;;;;;;14.00;13.25;;;31.51;97303.31;;;;118920;1189;25454;-60
2022/08/19 12:16:31;;;;;;;;;19.00;14.75;;;31.50;97298.77;;;;119098;1189;24982;-63
2022/08/19 12:19:03;;;;;;;;;15.50;12.25;;;31.48;97291.34;;;;119020;1187;24743;-63
2022/08/19 12:21:34;;;;;;;;;17.50;14.25;;;31.44;97294.05;;;;119173;1188;25481;-63
2022/08/19 12:24:04;;;;;;;;;17.75;17.75;;;31.71;97289.08;;;;118962;1190;25564;-63
2022/08/19 12:26:33;;;;;;;;;14.75;13.75;;;31.70;97290.48;;;;119095;1189;26462;-63
2022/08/19 12:29:21;;;;;;;;;15.25;13.50;;;31.66;97286.91;;;;119061;1188;25487;-63
2022/08/19 12:31:51;;;;;;;;;14.25;11.75;;;31.61;97281.91;;;;119028;1187;26102;-66